»·PEaware :: WAT482 KLAS-KLAX

WAT482 :: KLAS-KLAX

FLIGHT INFORMATION

Flight Status: Arrived
Operator:
Walker Air Transport
More flights by this operator :: More flights under this callsign
Pilot: Weston J. (31543)
Aircraft: AIRBUS A320
(A320)
More flights by this aircraft type
Origin: KLAS McCarran Intl
United States
Destination: KLAX Los Angeles Intl
United States
More flights between these airports :: More routes between these airports
Route: BOACH8 RIKII SHTNR ANJLL4
File this flight plan on PilotEdge
Remarks:
Altitude:
(Current/Filed)
30,000ft
Speed:
(Current/Filed)
450kts
Departed: 09-Jan-21 12:49 PM
Arrived: 09-Jan-21 01:33 PM
Distance/Time
Traveled:
205nm/0:44
Distance/Time
To Go:
Arrived

Flight Plot

Page will automatically refresh every two minutes.

Flight plan parsing failed; only flown route is shown


Map Options




Map Legend


Flown Route
Filed Route
Departure Airport
Arrival Airport
Navaid (VOR, NDB)
Fix

Horizontal Profiles

Position Reports

Time Latitude Longitude Heading Altitude Ground
Speed
09-Jan-21 11:47 36.080213 -115.136024 67 2093ft 0kts
09-Jan-21 11:48 36.080213 -115.136024 67 2093ft 0kts
09-Jan-21 11:49 36.080213 -115.136024 67 2093ft 0kts
09-Jan-21 11:50 36.080213 -115.136024 67 2093ft 0kts
09-Jan-21 11:51 36.080213 -115.136024 67 2093ft 0kts
09-Jan-21 11:52 36.080213 -115.136024 67 2093ft 0kts
09-Jan-21 11:53 36.080213 -115.136024 67 2093ft 0kts
09-Jan-21 11:54 36.080213 -115.136024 67 2093ft 0kts
09-Jan-21 11:55 36.080213 -115.136024 67 2093ft 0kts
09-Jan-21 11:56 36.080213 -115.136024 67 2093ft 0kts
09-Jan-21 11:57 36.080213 -115.136024 67 2093ft 0kts
09-Jan-21 11:58 36.080213 -115.136024 67 2093ft 0kts
09-Jan-21 11:59 36.080213 -115.136024 67 2093ft 0kts
09-Jan-21 12:00 36.080213 -115.136024 67 2093ft 0kts
09-Jan-21 12:01 36.080213 -115.136024 67 2093ft 0kts
09-Jan-21 12:02 36.080213 -115.136024 67 2093ft 0kts
09-Jan-21 12:03 36.080213 -115.136024 67 2093ft 0kts
09-Jan-21 12:04 36.080213 -115.136024 67 2093ft 0kts
09-Jan-21 12:05 36.080213 -115.136024 67 2093ft 0kts
09-Jan-21 12:06 36.080213 -115.136024 67 2093ft 0kts
09-Jan-21 12:07 36.080213 -115.136024 67 2093ft 0kts
09-Jan-21 12:08 36.080213 -115.136024 67 2093ft 0kts
09-Jan-21 12:09 36.080213 -115.136024 67 2093ft 0kts
09-Jan-21 12:10 36.080213 -115.136024 67 2093ft 0kts
09-Jan-21 12:12 36.080213 -115.136024 67 2093ft 0kts
09-Jan-21 12:13 36.080213 -115.136024 67 2093ft 0kts
09-Jan-21 12:14 36.080213 -115.136024 67 2093ft 0kts
09-Jan-21 12:15 36.080213 -115.136024 67 2093ft 0kts
09-Jan-21 12:16 36.080213 -115.136024 67 2093ft 0kts
09-Jan-21 12:17 36.080213 -115.136024 67 2093ft 0kts
09-Jan-21 12:18 36.080213 -115.136024 67 2093ft 0kts
09-Jan-21 12:19 36.080213 -115.136024 67 2093ft 0kts
09-Jan-21 12:20 36.080213 -115.136024 67 2093ft 0kts
09-Jan-21 12:21 36.080213 -115.136024 67 2093ft 0kts
09-Jan-21 12:22 36.080213 -115.136024 67 2093ft 0kts
09-Jan-21 12:22 36.080213 -115.136024 67 2093ft 0kts
09-Jan-21 12:24 36.080213 -115.136024 67 2093ft 0kts
09-Jan-21 12:25 36.080213 -115.136024 67 2093ft 0kts
09-Jan-21 12:26 36.080094 -115.136371 67 2094ft 2kts
09-Jan-21 12:26 36.079901 -115.136936 67 2096ft 2kts
09-Jan-21 12:27 36.079909 -115.136913 67 2095ft 0kts
09-Jan-21 12:29 36.079909 -115.136913 67 2095ft 0kts
09-Jan-21 12:30 36.079909 -115.136913 67 2095ft 0kts
09-Jan-21 12:31 36.079909 -115.136913 67 2095ft 0kts
09-Jan-21 12:31 36.079909 -115.136913 67 2095ft 0kts
09-Jan-21 12:32 36.079909 -115.136913 67 2095ft 0kts
09-Jan-21 12:33 36.079909 -115.136913 67 2095ft 0kts
09-Jan-21 12:34 36.079909 -115.136913 67 2095ft 0kts
09-Jan-21 12:35 36.079909 -115.136913 67 2095ft 0kts
09-Jan-21 12:36 36.079909 -115.136913 67 2095ft 0kts
09-Jan-21 12:37 36.079909 -115.136913 67 2095ft 0kts
09-Jan-21 12:38 36.079909 -115.136913 67 2095ft 0kts
09-Jan-21 12:39 36.079261 -115.136344 135 2095ft 10kts
09-Jan-21 12:40 36.078266 -115.128893 90 2064ft 37kts
09-Jan-21 12:41 36.077544 -115.121611 120 2039ft 0kts
09-Jan-21 12:42 36.077544 -115.121611 120 2039ft 0kts
09-Jan-21 12:43 36.077544 -115.121611 120 2039ft 0kts
09-Jan-21 12:44 36.077544 -115.121611 120 2039ft 0kts
09-Jan-21 12:45 36.077544 -115.121611 120 2039ft 0kts
09-Jan-21 12:46 36.077544 -115.121611 120 2039ft 0kts
09-Jan-21 12:47 36.077170 -115.121323 168 2039ft 6kts
09-Jan-21 12:48 36.076410 -115.124572 270 2048ft 73kts
09-Jan-21 12:49 36.079071 -115.182373 278 4522ft 220kts
09-Jan-21 12:50 36.063583 -115.264204 209 6654ft 264kts
09-Jan-21 12:51 35.992845 -115.291875 194 6983ft 269kts
09-Jan-21 12:52 35.919202 -115.307915 185 7642ft 282kts
09-Jan-21 12:53 35.843361 -115.312005 176 10098ft 282kts
09-Jan-21 12:54 35.761799 -115.304336 174 14215ft 306kts
09-Jan-21 12:55 35.670714 -115.296761 180 17077ft 363kts
09-Jan-21 12:56 35.562781 -115.298858 184 19111ft 407kts
09-Jan-21 12:57 35.457437 -115.341426 212 21044ft 405kts
09-Jan-21 12:58 35.357730 -115.409823 215 24095ft 420kts
09-Jan-21 12:59 35.256263 -115.482653 215 26925ft 431kts
09-Jan-21 13:00 35.152055 -115.558549 220 28991ft 452kts
09-Jan-21 13:01 35.055890 -115.668176 230 28999ft 504kts
09-Jan-21 13:02 34.962270 -115.785512 231 30141ft 463kts
09-Jan-21 13:03 34.872854 -115.898986 231 30341ft 471kts
09-Jan-21 13:04 34.783002 -116.012826 231 30314ft 440kts
09-Jan-21 13:05 34.702333 -116.115182 232 30323ft 424kts
09-Jan-21 13:06 34.621961 -116.217677 232 29058ft 418kts
09-Jan-21 13:07 34.543288 -116.317443 231 26430ft 404kts
09-Jan-21 13:08 34.466467 -116.414511 231 25375ft 397kts
09-Jan-21 13:09 34.400599 -116.522295 245 25327ft 400kts
09-Jan-21 13:10 34.349054 -116.641218 248 25270ft 400kts
09-Jan-21 13:11 34.300806 -116.760765 248 23932ft 393kts
09-Jan-21 13:12 34.254139 -116.876898 248 21396ft 380kts
09-Jan-21 13:13 34.210551 -116.992156 252 20243ft 373kts
09-Jan-21 13:14 34.177360 -117.107590 254 17624ft 355kts
09-Jan-21 13:15 34.148198 -117.214631 254 15706ft 332kts
09-Jan-21 13:16 34.119887 -117.318118 253 14108ft 323kts
09-Jan-21 13:17 34.092588 -117.421854 254 12197ft 312kts
09-Jan-21 13:18 34.064130 -117.521274 249 11343ft 315kts
09-Jan-21 13:19 34.031264 -117.615792 247 10072ft 286kts
09-Jan-21 13:20 34.004751 -117.708961 260 9921ft 298kts
09-Jan-21 13:21 33.995228 -117.799346 265 9131ft 250kts
09-Jan-21 13:22 33.988308 -117.874248 264 8408ft 209kts
09-Jan-21 13:23 33.981759 -117.941097 264 7177ft 199kts
09-Jan-21 13:24 33.975959 -117.999525 263 6522ft 170kts
09-Jan-21 13:25 33.970575 -118.053605 263 5787ft 158kts
09-Jan-21 13:26 33.964774 -118.111867 264 5075ft 197kts
09-Jan-21 13:27 33.958561 -118.177460 263 3727ft 195kts
09-Jan-21 13:28 33.952319 -118.237667 264 2332ft 186kts
09-Jan-21 13:29 33.946119 -118.295200 264 1575ft 169kts
09-Jan-21 13:30 33.940969 -118.347706 263 710ft 145kts
09-Jan-21 13:31 33.936266 -118.392419 263 130ft 122kts
09-Jan-21 13:32 33.936158 -118.403402 283 125ft 0kts
09-Jan-21 13:33 33.935996 -118.407365 269 125ft 28kts
09-Jan-21 13:34 33.938171 -118.409182 355 125ft 13kts
09-Jan-21 13:35 33.939769 -118.407392 69 125ft 0kts

Navigation Log

Ident Type
Flight plan parsing failed, navigation log unavailable